sensor_id;sensor_type;location;lat;lon;timestamp;P1;durP1;ratioP1;P2;durP2;ratioP2
80823;SDS011;70538;59.122;37.876;2023-09-08T00:01:01;42.67;;;14.43;;
80823;SDS011;70538;59.122;37.876;2023-09-08T00:03:31;53.67;;;16.90;;
80823;SDS011;70538;59.122;37.876;2023-09-08T00:05:58;56.38;;;17.77;;
80823;SDS011;70538;59.122;37.876;2023-09-08T00:08:26;51.22;;;16.50;;
80823;SDS011;70538;59.122;37.876;2023-09-08T00:10:54;28.83;;;10.73;;
80823;SDS011;70538;59.122;37.876;2023-09-08T00:13:22;25.55;;;8.30;;
80823;SDS011;70538;59.122;37.876;2023-09-08T00:15:49;45.08;;;15.65;;
80823;SDS011;70538;59.122;37.876;2023-09-08T00:18:17;50.25;;;15.93;;
80823;SDS011;70538;59.122;37.876;2023-09-08T00:20:45;40.17;;;13.60;;
80823;SDS011;70538;59.122;37.876;2023-09-08T00:23:13;29.67;;;10.37;;
80823;SDS011;70538;59.122;37.876;2023-09-08T00:25:41;33.90;;;10.32;;
80823;SDS011;70538;59.122;37.876;2023-09-08T00:28:09;34.55;;;13.75;;
80823;SDS011;70538;59.122;37.876;2023-09-08T00:30:36;32.70;;;12.95;;
80823;SDS011;70538;59.122;37.876;2023-09-08T00:33:05;34.83;;;11.02;;
80823;SDS011;70538;59.122;37.876;2023-09-08T00:35:36;30.57;;;12.23;;
80823;SDS011;70538;59.122;37.876;2023-09-08T00:38:06;42.03;;;12.88;;
80823;SDS011;70538;59.122;37.876;2023-09-08T00:40:33;57.83;;;16.00;;
80823;SDS011;70538;59.122;37.876;2023-09-08T00:43:02;49.72;;;17.67;;
80823;SDS011;70538;59.122;37.876;2023-09-08T00:45:30;40.08;;;13.52;;
80823;SDS011;70538;59.122;37.876;2023-09-08T00:47:58;44.73;;;14.50;;
80823;SDS011;70538;59.122;37.876;2023-09-08T00:50:27;69.95;;;21.13;;
80823;SDS011;70538;59.122;37.876;2023-09-08T00:52:55;80.80;;;25.98;;
80823;SDS011;70538;59.122;37.876;2023-09-08T00:55:23;66.55;;;19.20;;
80823;SDS011;70538;59.122;37.876;2023-09-08T00:57:51;55.03;;;18.13;;
80823;SDS011;70538;59.122;37.876;2023-09-08T01:00:19;32.30;;;11.00;;
80823;SDS011;70538;59.122;37.876;2023-09-08T01:02:47;43.20;;;14.40;;
80823;SDS011;70538;59.122;37.876;2023-09-08T01:05:15;40.60;;;11.70;;
80823;SDS011;70538;59.122;37.876;2023-09-08T01:07:44;58.70;;;17.40;;
80823;SDS011;70538;59.122;37.876;2023-09-08T01:10:13;54.75;;;16.40;;
80823;SDS011;70538;59.122;37.876;2023-09-08T01:12:42;39.07;;;12.20;;
80823;SDS011;70538;59.122;37.876;2023-09-08T01:15:10;48.15;;;14.68;;
80823;SDS011;70538;59.122;37.876;2023-09-08T01:17:38;47.65;;;16.73;;
80823;SDS011;70538;59.122;37.876;2023-09-08T01:20:13;31.30;;;10.95;;
80823;SDS011;70538;59.122;37.876;2023-09-08T01:22:58;47.50;;;13.90;;
80823;SDS011;70538;59.122;37.876;2023-09-08T01:25:55;51.60;;;14.07;;
80823;SDS011;70538;59.122;37.876;2023-09-08T01:28:29;50.00;;;15.30;;
80823;SDS011;70538;59.122;37.876;2023-09-08T01:30:59;56.88;;;16.02;;
80823;SDS011;70538;59.122;37.876;2023-09-08T01:33:27;32.97;;;9.20;;
80823;SDS011;70538;59.122;37.876;2023-09-08T01:35:56;73.95;;;20.65;;
80823;SDS011;70538;59.122;37.876;2023-09-08T01:38:24;70.63;;;20.07;;
80823;SDS011;70538;59.122;37.876;2023-09-08T01:40:53;87.32;;;23.95;;
80823;SDS011;70538;59.122;37.876;2023-09-08T01:43:21;83.28;;;22.42;;
80823;SDS011;70538;59.122;37.876;2023-09-08T01:45:49;59.67;;;16.15;;
80823;SDS011;70538;59.122;37.876;2023-09-08T01:48:17;49.38;;;11.85;;
80823;SDS011;70538;59.122;37.876;2023-09-08T01:50:46;50.47;;;12.63;;
80823;SDS011;70538;59.122;37.876;2023-09-08T01:53:15;33.45;;;8.77;;
80823;SDS011;70538;59.122;37.876;2023-09-08T01:55:43;59.75;;;11.32;;
80823;SDS011;70538;59.122;37.876;2023-09-08T01:58:10;29.13;;;7.32;;
80823;SDS011;70538;59.122;37.876;2023-09-08T02:00:38;46.78;;;10.88;;
80823;SDS011;70538;59.122;37.876;2023-09-08T02:03:06;54.07;;;13.03;;
80823;SDS011;70538;59.122;37.876;2023-09-08T02:05:34;70.82;;;14.95;;
80823;SDS011;70538;59.122;37.876;2023-09-08T02:08:06;38.38;;;9.25;;
80823;SDS011;70538;59.122;37.876;2023-09-08T02:10:34;63.05;;;11.23;;
80823;SDS011;70538;59.122;37.876;2023-09-08T02:13:02;47.50;;;8.93;;
80823;SDS011;70538;59.122;37.876;2023-09-08T02:15:37;41.50;;;6.07;;
80823;SDS011;70538;59.122;37.876;2023-09-08T02:18:06;37.03;;;6.57;;
80823;SDS011;70538;59.122;37.876;2023-09-08T02:20:54;24.40;;;5.22;;
80823;SDS011;70538;59.122;37.876;2023-09-08T02:23:22;41.78;;;8.00;;
80823;SDS011;70538;59.122;37.876;2023-09-08T02:25:50;49.10;;;10.88;;
80823;SDS011;70538;59.122;37.876;2023-09-08T02:28:18;46.07;;;11.27;;
80823;SDS011;70538;59.122;37.876;2023-09-08T02:30:46;101.03;;;21.00;;
80823;SDS011;70538;59.122;37.876;2023-09-08T02:33:14;76.60;;;16.00;;
80823;SDS011;70538;59.122;37.876;2023-09-08T02:35:42;69.25;;;15.43;;
80823;SDS011;70538;59.122;37.876;2023-09-08T02:38:10;69.68;;;17.73;;
80823;SDS011;70538;59.122;37.876;2023-09-08T02:40:38;79.80;;;20.53;;
80823;SDS011;70538;59.122;37.876;2023-09-08T02:43:06;91.13;;;20.88;;
80823;SDS011;70538;59.122;37.876;2023-09-08T02:45:34;75.80;;;20.65;;
80823;SDS011;70538;59.122;37.876;2023-09-08T02:48:02;112.75;;;26.98;;
80823;SDS011;70538;59.122;37.876;2023-09-08T02:50:30;113.30;;;27.73;;
80823;SDS011;70538;59.122;37.876;2023-09-08T02:52:58;90.37;;;22.70;;
80823;SDS011;70538;59.122;37.876;2023-09-08T02:55:25;60.58;;;15.30;;
80823;SDS011;70538;59.122;37.876;2023-09-08T02:57:53;69.63;;;19.70;;
80823;SDS011;70538;59.122;37.876;2023-09-08T03:00:21;56.03;;;16.40;;
80823;SDS011;70538;59.122;37.876;2023-09-08T03:02:49;47.22;;;12.88;;
80823;SDS011;70538;59.122;37.876;2023-09-08T03:05:17;49.40;;;10.63;;
80823;SDS011;70538;59.122;37.876;2023-09-08T03:07:47;34.85;;;7.10;;
80823;SDS011;70538;59.122;37.876;2023-09-08T03:10:17;24.70;;;5.38;;
80823;SDS011;70538;59.122;37.876;2023-09-08T03:12:47;28.88;;;5.75;;
80823;SDS011;70538;59.122;37.876;2023-09-08T03:15:15;41.15;;;9.55;;
80823;SDS011;70538;59.122;37.876;2023-09-08T03:17:43;54.13;;;12.80;;
80823;SDS011;70538;59.122;37.876;2023-09-08T03:20:11;41.05;;;10.43;;
80823;SDS011;70538;59.122;37.876;2023-09-08T03:22:41;56.17;;;13.27;;
80823;SDS011;70538;59.122;37.876;2023-09-08T03:25:09;42.60;;;7.95;;
80823;SDS011;70538;59.122;37.876;2023-09-08T03:27:36;24.02;;;4.95;;
80823;SDS011;70538;59.122;37.876;2023-09-08T03:30:05;28.63;;;4.93;;
80823;SDS011;70538;59.122;37.876;2023-09-08T03:32:33;19.80;;;3.97;;
80823;SDS011;70538;59.122;37.876;2023-09-08T03:35:01;29.95;;;5.07;;
80823;SDS011;70538;59.122;37.876;2023-09-08T03:37:31;31.58;;;5.93;;
80823;SDS011;70538;59.122;37.876;2023-09-08T03:39:59;25.42;;;4.53;;
80823;SDS011;70538;59.122;37.876;2023-09-08T03:42:27;17.00;;;4.63;;
80823;SDS011;70538;59.122;37.876;2023-09-08T03:44:54;12.48;;;2.97;;
80823;SDS011;70538;59.122;37.876;2023-09-08T03:47:22;12.30;;;2.13;;
80823;SDS011;70538;59.122;37.876;2023-09-08T03:49:50;12.10;;;3.40;;
80823;SDS011;70538;59.122;37.876;2023-09-08T03:52:18;8.73;;;2.45;;
80823;SDS011;70538;59.122;37.876;2023-09-08T03:54:45;13.00;;;2.30;;
80823;SDS011;70538;59.122;37.876;2023-09-08T03:57:13;21.63;;;4.30;;
80823;SDS011;70538;59.122;37.876;2023-09-08T03:59:41;23.60;;;5.35;;
80823;SDS011;70538;59.122;37.876;2023-09-08T04:02:09;26.90;;;5.80;;
80823;SDS011;70538;59.122;37.876;2023-09-08T04:04:36;25.38;;;6.03;;
80823;SDS011;70538;59.122;37.876;2023-09-08T04:07:04;24.63;;;4.87;;
80823;SDS011;70538;59.122;37.876;2023-09-08T04:09:32;23.73;;;4.90;;
80823;SDS011;70538;59.122;37.876;2023-09-08T04:11:59;34.30;;;7.47;;
80823;SDS011;70538;59.122;37.876;2023-09-08T04:14:28;24.02;;;5.53;;
80823;SDS011;70538;59.122;37.876;2023-09-08T04:16:57;31.90;;;8.02;;
80823;SDS011;70538;59.122;37.876;2023-09-08T04:19:25;28.93;;;8.20;;
80823;SDS011;70538;59.122;37.876;2023-09-08T04:21:54;43.72;;;10.05;;
80823;SDS011;70538;59.122;37.876;2023-09-08T04:24:22;30.13;;;7.45;;
80823;SDS011;70538;59.122;37.876;2023-09-08T04:26:49;24.27;;;5.90;;
80823;SDS011;70538;59.122;37.876;2023-09-08T04:29:17;19.83;;;4.90;;
80823;SDS011;70538;59.122;37.876;2023-09-08T04:31:46;21.67;;;4.33;;
80823;SDS011;70538;59.122;37.876;2023-09-08T04:34:14;12.25;;;2.90;;
80823;SDS011;70538;59.122;37.876;2023-09-08T04:36:42;8.65;;;2.03;;
80823;SDS011;70538;59.122;37.876;2023-09-08T04:39:09;25.25;;;7.05;;
80823;SDS011;70538;59.122;37.876;2023-09-08T04:41:38;22.85;;;5.75;;
80823;SDS011;70538;59.122;37.876;2023-09-08T04:44:06;18.90;;;5.27;;
80823;SDS011;70538;59.122;37.876;2023-09-08T04:46:34;28.73;;;5.40;;
80823;SDS011;70538;59.122;37.876;2023-09-08T04:49:02;30.27;;;8.35;;
80823;SDS011;70538;59.122;37.876;2023-09-08T04:51:30;42.90;;;9.13;;
80823;SDS011;70538;59.122;37.876;2023-09-08T04:53:58;14.95;;;3.85;;
80823;SDS011;70538;59.122;37.876;2023-09-08T04:56:25;33.37;;;9.20;;
80823;SDS011;70538;59.122;37.876;2023-09-08T04:58:54;30.48;;;6.43;;
80823;SDS011;70538;59.122;37.876;2023-09-08T05:01:22;29.02;;;7.18;;
80823;SDS011;70538;59.122;37.876;2023-09-08T05:03:50;14.55;;;3.65;;
80823;SDS011;70538;59.122;37.876;2023-09-08T05:06:18;24.35;;;5.88;;
80823;SDS011;70538;59.122;37.876;2023-09-08T05:08:45;26.47;;;5.70;;
80823;SDS011;70538;59.122;37.876;2023-09-08T05:11:13;25.73;;;7.03;;
80823;SDS011;70538;59.122;37.876;2023-09-08T05:13:41;27.98;;;7.35;;
80823;SDS011;70538;59.122;37.876;2023-09-08T05:16:09;18.65;;;6.75;;
80823;SDS011;70538;59.122;37.876;2023-09-08T05:18:40;28.48;;;10.15;;
80823;SDS011;70538;59.122;37.876;2023-09-08T05:21:08;34.90;;;11.13;;
80823;SDS011;70538;59.122;37.876;2023-09-08T05:23:36;38.88;;;10.30;;
80823;SDS011;70538;59.122;37.876;2023-09-08T05:26:03;25.17;;;7.20;;
80823;SDS011;70538;59.122;37.876;2023-09-08T05:28:31;19.17;;;5.95;;
80823;SDS011;70538;59.122;37.876;2023-09-08T05:31:03;25.50;;;6.10;;
80823;SDS011;70538;59.122;37.876;2023-09-08T05:33:31;22.70;;;6.43;;
80823;SDS011;70538;59.122;37.876;2023-09-08T05:35:59;22.73;;;6.50;;
80823;SDS011;70538;59.122;37.876;2023-09-08T05:38:27;24.75;;;7.93;;
80823;SDS011;70538;59.122;37.876;2023-09-08T05:40:55;22.05;;;7.25;;
80823;SDS011;70538;59.122;37.876;2023-09-08T05:43:24;16.05;;;4.72;;
80823;SDS011;70538;59.122;37.876;2023-09-08T05:45:52;13.03;;;3.17;;
80823;SDS011;70538;59.122;37.876;2023-09-08T05:48:20;12.88;;;2.83;;
80823;SDS011;70538;59.122;37.876;2023-09-08T05:50:48;11.65;;;3.47;;
80823;SDS011;70538;59.122;37.876;2023-09-08T05:53:17;21.63;;;7.45;;
80823;SDS011;70538;59.122;37.876;2023-09-08T05:55:45;21.70;;;6.95;;
80823;SDS011;70538;59.122;37.876;2023-09-08T05:58:13;35.70;;;12.70;;
80823;SDS011;70538;59.122;37.876;2023-09-08T06:00:40;20.70;;;6.28;;
80823;SDS011;70538;59.122;37.876;2023-09-08T06:03:08;25.10;;;8.30;;
80823;SDS011;70538;59.122;37.876;2023-09-08T06:05:36;12.02;;;3.20;;
80823;SDS011;70538;59.122;37.876;2023-09-08T06:08:04;12.43;;;3.20;;
80823;SDS011;70538;59.122;37.876;2023-09-08T06:10:33;11.10;;;3.27;;
80823;SDS011;70538;59.122;37.876;2023-09-08T06:13:01;8.52;;;2.80;;
80823;SDS011;70538;59.122;37.876;2023-09-08T06:15:29;7.13;;;1.83;;
80823;SDS011;70538;59.122;37.876;2023-09-08T06:17:57;7.85;;;2.15;;
80823;SDS011;70538;59.122;37.876;2023-09-08T06:20:24;9.73;;;2.25;;
80823;SDS011;70538;59.122;37.876;2023-09-08T06:22:54;21.07;;;6.00;;
80823;SDS011;70538;59.122;37.876;2023-09-08T06:25:22;14.10;;;3.55;;
80823;SDS011;70538;59.122;37.876;2023-09-08T06:27:50;16.67;;;4.00;;
80823;SDS011;70538;59.122;37.876;2023-09-08T06:30:18;9.50;;;2.10;;
80823;SDS011;70538;59.122;37.876;2023-09-08T06:32:46;8.93;;;2.88;;
80823;SDS011;70538;59.122;37.876;2023-09-08T06:35:14;17.17;;;4.60;;
80823;SDS011;70538;59.122;37.876;2023-09-08T06:37:42;16.63;;;3.65;;
80823;SDS011;70538;59.122;37.876;2023-09-08T06:40:10;20.92;;;7.43;;
80823;SDS011;70538;59.122;37.876;2023-09-08T06:42:38;17.23;;;6.03;;
80823;SDS011;70538;59.122;37.876;2023-09-08T06:45:06;28.02;;;8.70;;
80823;SDS011;70538;59.122;37.876;2023-09-08T06:47:35;26.20;;;10.43;;
80823;SDS011;70538;59.122;37.876;2023-09-08T06:50:03;16.83;;;5.13;;
80823;SDS011;70538;59.122;37.876;2023-09-08T06:52:31;19.55;;;6.32;;
80823;SDS011;70538;59.122;37.876;2023-09-08T06:54:59;32.33;;;8.70;;
80823;SDS011;70538;59.122;37.876;2023-09-08T06:57:27;21.73;;;6.55;;
80823;SDS011;70538;59.122;37.876;2023-09-08T06:59:55;15.27;;;4.77;;
80823;SDS011;70538;59.122;37.876;2023-09-08T07:02:23;10.32;;;3.33;;
80823;SDS011;70538;59.122;37.876;2023-09-08T07:04:52;11.88;;;3.08;;
80823;SDS011;70538;59.122;37.876;2023-09-08T07:07:22;24.92;;;6.82;;
80823;SDS011;70538;59.122;37.876;2023-09-08T07:09:50;23.83;;;7.00;;
80823;SDS011;70538;59.122;37.876;2023-09-08T07:12:18;28.23;;;8.90;;
80823;SDS011;70538;59.122;37.876;2023-09-08T07:14:46;19.20;;;4.88;;
80823;SDS011;70538;59.122;37.876;2023-09-08T07:17:14;19.35;;;5.40;;
80823;SDS011;70538;59.122;37.876;2023-09-08T07:19:42;18.30;;;5.20;;
80823;SDS011;70538;59.122;37.876;2023-09-08T07:22:10;13.10;;;3.88;;
80823;SDS011;70538;59.122;37.876;2023-09-08T07:24:38;24.50;;;7.50;;
80823;SDS011;70538;59.122;37.876;2023-09-08T07:27:06;22.33;;;6.28;;
80823;SDS011;70538;59.122;37.876;2023-09-08T07:29:34;24.63;;;6.63;;
80823;SDS011;70538;59.122;37.876;2023-09-08T07:32:01;7.82;;;2.20;;
80823;SDS011;70538;59.122;37.876;2023-09-08T07:34:30;11.07;;;2.33;;
80823;SDS011;70538;59.122;37.876;2023-09-08T07:36:57;10.93;;;2.40;;
80823;SDS011;70538;59.122;37.876;2023-09-08T07:39:26;8.15;;;1.35;;
80823;SDS011;70538;59.122;37.876;2023-09-08T07:41:54;7.72;;;1.25;;
80823;SDS011;70538;59.122;37.876;2023-09-08T07:44:27;7.85;;;2.10;;
80823;SDS011;70538;59.122;37.876;2023-09-08T07:46:56;11.38;;;2.85;;
80823;SDS011;70538;59.122;37.876;2023-09-08T07:49:24;11.10;;;1.37;;
80823;SDS011;70538;59.122;37.876;2023-09-08T07:51:52;5.63;;;1.10;;
80823;SDS011;70538;59.122;37.876;2023-09-08T07:54:19;4.65;;;0.70;;
80823;SDS011;70538;59.122;37.876;2023-09-08T07:56:47;4.78;;;0.80;;
80823;SDS011;70538;59.122;37.876;2023-09-08T07:59:15;4.18;;;0.77;;
80823;SDS011;70538;59.122;37.876;2023-09-08T08:01:43;2.33;;;0.50;;
80823;SDS011;70538;59.122;37.876;2023-09-08T08:04:11;3.67;;;0.60;;
80823;SDS011;70538;59.122;37.876;2023-09-08T08:06:39;4.90;;;0.70;;
80823;SDS011;70538;59.122;37.876;2023-09-08T08:09:07;11.27;;;1.02;;
80823;SDS011;70538;59.122;37.876;2023-09-08T08:11:34;4.72;;;0.90;;
80823;SDS011;70538;59.122;37.876;2023-09-08T08:14:02;4.80;;;0.80;;
80823;SDS011;70538;59.122;37.876;2023-09-08T08:16:31;6.18;;;1.00;;
80823;SDS011;70538;59.122;37.876;2023-09-08T08:18:59;5.22;;;1.00;;
80823;SDS011;70538;59.122;37.876;2023-09-08T08:21:27;7.10;;;2.58;;
80823;SDS011;70538;59.122;37.876;2023-09-08T08:23:55;4.88;;;0.90;;
80823;SDS011;70538;59.122;37.876;2023-09-08T08:26:22;4.30;;;0.87;;
80823;SDS011;70538;59.122;37.876;2023-09-08T08:28:54;6.45;;;1.00;;
80823;SDS011;70538;59.122;37.876;2023-09-08T08:31:22;4.88;;;0.90;;
80823;SDS011;70538;59.122;37.876;2023-09-08T08:33:51;7.00;;;1.02;;
80823;SDS011;70538;59.122;37.876;2023-09-08T08:36:19;4.80;;;0.82;;
80823;SDS011;70538;59.122;37.876;2023-09-08T08:38:46;5.53;;;0.97;;
80823;SDS011;70538;59.122;37.876;2023-09-08T08:41:14;5.90;;;0.88;;
80823;SDS011;70538;59.122;37.876;2023-09-08T08:43:43;6.15;;;0.98;;
80823;SDS011;70538;59.122;37.876;2023-09-08T08:46:12;8.32;;;1.67;;
80823;SDS011;70538;59.122;37.876;2023-09-08T08:48:41;10.30;;;1.63;;
80823;SDS011;70538;59.122;37.876;2023-09-08T08:51:10;5.17;;;1.07;;
80823;SDS011;70538;59.122;37.876;2023-09-08T08:53:38;7.32;;;1.15;;
80823;SDS011;70538;59.122;37.876;2023-09-08T08:56:08;7.78;;;1.20;;
80823;SDS011;70538;59.122;37.876;2023-09-08T08:58:37;6.90;;;1.00;;
80823;SDS011;70538;59.122;37.876;2023-09-08T09:01:07;13.80;;;1.63;;
80823;SDS011;70538;59.122;37.876;2023-09-08T09:03:35;6.20;;;1.37;;
80823;SDS011;70538;59.122;37.876;2023-09-08T09:06:05;8.05;;;2.05;;
80823;SDS011;70538;59.122;37.876;2023-09-08T09:08:33;5.95;;;1.10;;
80823;SDS011;70538;59.122;37.876;2023-09-08T09:11:01;10.82;;;1.15;;
80823;SDS011;70538;59.122;37.876;2023-09-08T09:13:29;4.80;;;0.90;;
80823;SDS011;70538;59.122;37.876;2023-09-08T09:16:00;4.93;;;0.90;;
80823;SDS011;70538;59.122;37.876;2023-09-08T09:18:30;3.72;;;0.80;;
80823;SDS011;70538;59.122;37.876;2023-09-08T09:20:59;3.08;;;0.70;;
80823;SDS011;70538;59.122;37.876;2023-09-08T09:26:01;8.43;;;1.20;;
80823;SDS011;70538;59.122;37.876;2023-09-08T09:28:31;3.13;;;0.73;;
80823;SDS011;70538;59.122;37.876;2023-09-08T09:30:59;7.47;;;2.35;;
80823;SDS011;70538;59.122;37.876;2023-09-08T09:33:28;5.45;;;1.10;;
80823;SDS011;70538;59.122;37.876;2023-09-08T09:35:57;5.18;;;0.88;;
80823;SDS011;70538;59.122;37.876;2023-09-08T09:38:26;11.18;;;1.40;;
80823;SDS011;70538;59.122;37.876;2023-09-08T09:40:55;5.67;;;1.10;;
80823;SDS011;70538;59.122;37.876;2023-09-08T09:43:23;4.72;;;0.80;;
80823;SDS011;70538;59.122;37.876;2023-09-08T09:45:51;5.55;;;1.08;;
80823;SDS011;70538;59.122;37.876;2023-09-08T09:48:21;5.28;;;1.40;;
80823;SDS011;70538;59.122;37.876;2023-09-08T09:50:51;8.50;;;2.10;;
80823;SDS011;70538;59.122;37.876;2023-09-08T09:53:20;5.57;;;0.90;;
80823;SDS011;70538;59.122;37.876;2023-09-08T09:55:47;8.57;;;1.20;;
80823;SDS011;70538;59.122;37.876;2023-09-08T09:58:16;10.02;;;1.10;;
80823;SDS011;70538;59.122;37.876;2023-09-08T10:00:45;9.95;;;2.55;;
80823;SDS011;70538;59.122;37.876;2023-09-08T10:03:16;17.55;;;4.13;;
80823;SDS011;70538;59.122;37.876;2023-09-08T10:05:46;11.23;;;2.60;;
80823;SDS011;70538;59.122;37.876;2023-09-08T10:08:16;4.80;;;1.23;;
80823;SDS011;70538;59.122;37.876;2023-09-08T10:10:45;5.13;;;1.10;;
80823;SDS011;70538;59.122;37.876;2023-09-08T10:13:16;8.00;;;1.15;;
80823;SDS011;70538;59.122;37.876;2023-09-08T10:15:52;6.28;;;1.00;;
80823;SDS011;70538;59.122;37.876;2023-09-08T10:18:24;4.53;;;1.00;;
80823;SDS011;70538;59.122;37.876;2023-09-08T10:20:54;5.95;;;1.00;;
80823;SDS011;70538;59.122;37.876;2023-09-08T10:23:36;5.55;;;0.90;;
80823;SDS011;70538;59.122;37.876;2023-09-08T10:26:10;4.72;;;1.05;;
80823;SDS011;70538;59.122;37.876;2023-09-08T10:28:38;4.50;;;0.88;;
80823;SDS011;70538;59.122;37.876;2023-09-08T10:31:06;7.33;;;1.30;;
80823;SDS011;70538;59.122;37.876;2023-09-08T10:33:39;7.70;;;1.33;;
80823;SDS011;70538;59.122;37.876;2023-09-08T10:36:09;9.75;;;2.10;;
80823;SDS011;70538;59.122;37.876;2023-09-08T10:38:38;5.38;;;0.90;;
80823;SDS011;70538;59.122;37.876;2023-09-08T10:43:46;4.27;;;0.90;;
80823;SDS011;70538;59.122;37.876;2023-09-08T10:46:27;5.78;;;0.90;;
80823;SDS011;70538;59.122;37.876;2023-09-08T10:49:00;3.65;;;0.90;;
80823;SDS011;70538;59.122;37.876;2023-09-08T10:51:35;7.38;;;1.13;;
80823;SDS011;70538;59.122;37.876;2023-09-08T10:54:03;4.88;;;0.77;;
80823;SDS011;70538;59.122;37.876;2023-09-08T10:57:06;6.57;;;0.80;;
80823;SDS011;70538;59.122;37.876;2023-09-08T10:59:28;6.88;;;0.93;;
80823;SDS011;70538;59.122;37.876;2023-09-08T11:01:56;6.75;;;1.20;;
80823;SDS011;70538;59.122;37.876;2023-09-08T11:04:24;7.95;;;1.40;;
80823;SDS011;70538;59.122;37.876;2023-09-08T11:06:55;5.53;;;1.10;;
80823;SDS011;70538;59.122;37.876;2023-09-08T11:09:24;4.73;;;0.90;;
80823;SDS011;70538;59.122;37.876;2023-09-08T11:12:00;7.43;;;0.98;;
80823;SDS011;70538;59.122;37.876;2023-09-08T11:14:30;5.60;;;1.10;;
80823;SDS011;70538;59.122;37.876;2023-09-08T11:16:58;5.20;;;0.80;;
80823;SDS011;70538;59.122;37.876;2023-09-08T11:19:44;4.90;;;0.68;;
80823;SDS011;70538;59.122;37.876;2023-09-08T11:22:16;6.60;;;0.60;;
80823;SDS011;70538;59.122;37.876;2023-09-08T11:24:45;5.68;;;0.70;;
80823;SDS011;70538;59.122;37.876;2023-09-08T11:27:12;4.72;;;0.88;;
80823;SDS011;70538;59.122;37.876;2023-09-08T11:29:40;4.00;;;0.93;;
80823;SDS011;70538;59.122;37.876;2023-09-08T11:32:08;5.25;;;0.90;;
80823;SDS011;70538;59.122;37.876;2023-09-08T11:34:36;5.13;;;1.00;;
80823;SDS011;70538;59.122;37.876;2023-09-08T11:37:08;4.05;;;0.80;;
80823;SDS011;70538;59.122;37.876;2023-09-08T11:39:40;4.35;;;0.82;;
80823;SDS011;70538;59.122;37.876;2023-09-08T11:42:10;4.15;;;0.93;;
80823;SDS011;70538;59.122;37.876;2023-09-08T11:44:39;5.10;;;0.73;;
80823;SDS011;70538;59.122;37.876;2023-09-08T11:47:09;3.33;;;0.60;;
80823;SDS011;70538;59.122;37.876;2023-09-08T11:49:38;4.53;;;0.77;;
80823;SDS011;70538;59.122;37.876;2023-09-08T11:52:11;5.22;;;1.00;;
80823;SDS011;70538;59.122;37.876;2023-09-08T11:54:38;3.65;;;0.80;;
80823;SDS011;70538;59.122;37.876;2023-09-08T11:57:27;4.38;;;1.20;;
80823;SDS011;70538;59.122;37.876;2023-09-08T11:59:55;5.77;;;0.70;;
80823;SDS011;70538;59.122;37.876;2023-09-08T12:02:23;9.98;;;1.63;;
80823;SDS011;70538;59.122;37.876;2023-09-08T12:04:53;10.50;;;1.15;;
80823;SDS011;70538;59.122;37.876;2023-09-08T12:07:21;5.65;;;1.30;;
80823;SDS011;70538;59.122;37.876;2023-09-08T12:09:49;7.65;;;1.25;;
80823;SDS011;70538;59.122;37.876;2023-09-08T12:12:17;4.43;;;0.90;;
80823;SDS011;70538;59.122;37.876;2023-09-08T12:14:44;6.03;;;1.08;;
80823;SDS011;70538;59.122;37.876;2023-09-08T12:17:14;4.47;;;0.90;;
80823;SDS011;70538;59.122;37.876;2023-09-08T12:19:44;7.85;;;1.25;;
80823;SDS011;70538;59.122;37.876;2023-09-08T12:22:12;5.90;;;1.33;;
80823;SDS011;70538;59.122;37.876;2023-09-08T12:24:48;3.70;;;0.97;;
80823;SDS011;70538;59.122;37.876;2023-09-08T12:27:27;3.85;;;1.00;;
80823;SDS011;70538;59.122;37.876;2023-09-08T12:29:59;5.45;;;1.10;;
80823;SDS011;70538;59.122;37.876;2023-09-08T12:32:33;4.38;;;1.10;;
80823;SDS011;70538;59.122;37.876;2023-09-08T12:35:03;7.80;;;2.03;;
80823;SDS011;70538;59.122;37.876;2023-09-08T12:37:32;5.23;;;0.80;;
80823;SDS011;70538;59.122;37.876;2023-09-08T12:40:03;4.85;;;0.93;;
80823;SDS011;70538;59.122;37.876;2023-09-08T12:42:32;3.95;;;0.75;;
80823;SDS011;70538;59.122;37.876;2023-09-08T12:45:06;6.15;;;0.88;;
80823;SDS011;70538;59.122;37.876;2023-09-08T12:47:34;4.82;;;0.90;;
80823;SDS011;70538;59.122;37.876;2023-09-08T12:50:03;6.07;;;1.00;;
80823;SDS011;70538;59.122;37.876;2023-09-08T12:52:32;5.68;;;1.00;;
80823;SDS011;70538;59.122;37.876;2023-09-08T12:55:01;4.25;;;1.13;;
80823;SDS011;70538;59.122;37.876;2023-09-08T12:57:30;5.90;;;1.10;;
80823;SDS011;70538;59.122;37.876;2023-09-08T12:59:58;5.70;;;2.78;;
80823;SDS011;70538;59.122;37.876;2023-09-08T13:02:26;7.00;;;1.33;;
80823;SDS011;70538;59.122;37.876;2023-09-08T13:04:54;5.45;;;1.10;;
80823;SDS011;70538;59.122;37.876;2023-09-08T13:07:22;7.07;;;1.30;;
80823;SDS011;70538;59.122;37.876;2023-09-08T13:09:50;4.75;;;0.80;;
80823;SDS011;70538;59.122;37.876;2023-09-08T13:12:18;4.20;;;0.95;;
80823;SDS011;70538;59.122;37.876;2023-09-08T13:14:46;5.90;;;1.00;;
80823;SDS011;70538;59.122;37.876;2023-09-08T13:17:14;6.38;;;0.80;;
80823;SDS011;70538;59.122;37.876;2023-09-08T13:19:43;9.60;;;1.10;;
80823;SDS011;70538;59.122;37.876;2023-09-08T13:22:12;8.18;;;1.00;;
80823;SDS011;70538;59.122;37.876;2023-09-08T13:24:40;8.15;;;1.20;;
80823;SDS011;70538;59.122;37.876;2023-09-08T13:27:08;8.00;;;1.30;;
80823;SDS011;70538;59.122;37.876;2023-09-08T13:29:36;4.55;;;1.00;;
80823;SDS011;70538;59.122;37.876;2023-09-08T13:32:04;4.40;;;1.00;;
80823;SDS011;70538;59.122;37.876;2023-09-08T13:34:32;5.57;;;0.90;;
80823;SDS011;70538;59.122;37.876;2023-09-08T13:37:01;5.35;;;1.20;;
80823;SDS011;70538;59.122;37.876;2023-09-08T13:39:30;12.20;;;1.87;;
80823;SDS011;70538;59.122;37.876;2023-09-08T13:41:59;8.95;;;1.33;;
80823;SDS011;70538;59.122;37.876;2023-09-08T13:44:28;9.57;;;1.67;;
80823;SDS011;70538;59.122;37.876;2023-09-08T13:46:56;8.43;;;2.10;;
80823;SDS011;70538;59.122;37.876;2023-09-08T13:49:25;10.27;;;3.25;;
80823;SDS011;70538;59.122;37.876;2023-09-08T13:51:55;8.37;;;2.23;;
80823;SDS011;70538;59.122;37.876;2023-09-08T13:54:27;7.50;;;1.58;;
80823;SDS011;70538;59.122;37.876;2023-09-08T13:56:57;7.85;;;1.90;;
80823;SDS011;70538;59.122;37.876;2023-09-08T13:59:35;4.45;;;1.23;;
80823;SDS011;70538;59.122;37.876;2023-09-08T14:02:03;6.15;;;1.50;;
80823;SDS011;70538;59.122;37.876;2023-09-08T14:04:34;7.47;;;1.70;;
80823;SDS011;70538;59.122;37.876;2023-09-08T14:07:05;8.65;;;1.83;;
80823;SDS011;70538;59.122;37.876;2023-09-08T14:09:42;6.18;;;1.20;;
80823;SDS011;70538;59.122;37.876;2023-09-08T14:12:23;4.68;;;1.02;;
80823;SDS011;70538;59.122;37.876;2023-09-08T14:15:01;5.78;;;1.30;;
80823;SDS011;70538;59.122;37.876;2023-09-08T14:17:32;5.70;;;1.13;;
80823;SDS011;70538;59.122;37.876;2023-09-08T14:20:00;5.25;;;1.30;;
80823;SDS011;70538;59.122;37.876;2023-09-08T14:22:29;7.40;;;1.40;;
80823;SDS011;70538;59.122;37.876;2023-09-08T14:24:58;7.22;;;1.40;;
80823;SDS011;70538;59.122;37.876;2023-09-08T14:27:26;5.28;;;1.38;;
80823;SDS011;70538;59.122;37.876;2023-09-08T14:29:53;4.53;;;1.23;;
80823;SDS011;70538;59.122;37.876;2023-09-08T14:32:22;4.60;;;1.17;;
80823;SDS011;70538;59.122;37.876;2023-09-08T14:34:50;6.28;;;1.40;;
80823;SDS011;70538;59.122;37.876;2023-09-08T14:37:18;3.97;;;0.90;;
80823;SDS011;70538;59.122;37.876;2023-09-08T14:39:46;6.00;;;1.27;;
80823;SDS011;70538;59.122;37.876;2023-09-08T14:42:14;7.33;;;1.73;;